sensor_id;sensor_type;location;lat;lon;timestamp;P1;durP1;ratioP1;P2;durP2;ratioP2
20935;SDS011;10627;54.514;18.532;2022-07-29T00:00:19;2.95;;;1.50;;
20935;SDS011;10627;54.514;18.532;2022-07-29T01:05:23;5.65;;;2.03;;
20935;SDS011;10627;54.514;18.532;2022-07-29T01:10:59;6.30;;;2.30;;
20935;SDS011;10627;54.514;18.532;2022-07-29T01:47:24;6.95;;;1.90;;
20935;SDS011;10627;54.514;18.532;2022-07-29T01:52:56;3.83;;;1.92;;
20935;SDS011;10627;54.514;18.532;2022-07-29T02:23:44;6.85;;;2.20;;
20935;SDS011;10627;54.514;18.532;2022-07-29T02:29:02;3.35;;;2.10;;
20935;SDS011;10627;54.514;18.532;2022-07-29T02:34:26;7.15;;;2.40;;
20935;SDS011;10627;54.514;18.532;2022-07-29T02:39:48;4.10;;;1.75;;
20935;SDS011;10627;54.514;18.532;2022-07-29T02:44:57;5.95;;;2.30;;
20935;SDS011;10627;54.514;18.532;2022-07-29T02:55:52;7.57;;;2.13;;
20935;SDS011;10627;54.514;18.532;2022-07-29T03:06:58;5.82;;;2.13;;
20935;SDS011;10627;54.514;18.532;2022-07-29T03:24:09;5.38;;;2.08;;
20935;SDS011;10627;54.514;18.532;2022-07-29T03:36:17;5.20;;;2.13;;
20935;SDS011;10627;54.514;18.532;2022-07-29T03:53:59;3.97;;;2.00;;
20935;SDS011;10627;54.514;18.532;2022-07-29T03:59:21;6.00;;;2.17;;
20935;SDS011;10627;54.514;18.532;2022-07-29T04:04:25;5.13;;;1.98;;
20935;SDS011;10627;54.514;18.532;2022-07-29T04:21:38;8.52;;;2.80;;
20935;SDS011;10627;54.514;18.532;2022-07-29T04:27:14;3.22;;;2.20;;
20935;SDS011;10627;54.514;18.532;2022-07-29T04:39:14;6.15;;;2.40;;
20935;SDS011;10627;54.514;18.532;2022-07-29T04:44:15;4.75;;;2.22;;
20935;SDS011;10627;54.514;18.532;2022-07-29T04:55:26;9.38;;;2.55;;
20935;SDS011;10627;54.514;18.532;2022-07-29T05:07:20;9.50;;;3.17;;
20935;SDS011;10627;54.514;18.532;2022-07-29T05:24:00;10.15;;;2.92;;
20935;SDS011;10627;54.514;18.532;2022-07-29T05:29:27;8.52;;;2.63;;
20935;SDS011;10627;54.514;18.532;2022-07-29T05:35:03;6.15;;;2.15;;
20935;SDS011;10627;54.514;18.532;2022-07-29T05:40:44;5.30;;;1.40;;
20935;SDS011;10627;54.514;18.532;2022-07-29T05:51:29;2.10;;;1.88;;
20935;SDS011;10627;54.514;18.532;2022-07-29T06:08:06;2.17;;;0.80;;
20935;SDS011;10627;54.514;18.532;2022-07-29T06:13:08;2.65;;;1.30;;
20935;SDS011;10627;54.514;18.532;2022-07-29T06:18:25;5.57;;;1.13;;
20935;SDS011;10627;54.514;18.532;2022-07-29T06:23:38;4.18;;;0.93;;
20935;SDS011;10627;54.514;18.532;2022-07-29T06:29:05;4.35;;;0.80;;
20935;SDS011;10627;54.514;18.532;2022-07-29T06:40:31;3.75;;;0.75;;
20935;SDS011;10627;54.514;18.532;2022-07-29T06:52:29;1.38;;;0.60;;
20935;SDS011;10627;54.514;18.532;2022-07-29T06:57:50;1.35;;;0.70;;
20935;SDS011;10627;54.514;18.532;2022-07-29T07:02:51;1.55;;;0.73;;
20935;SDS011;10627;54.514;18.532;2022-07-29T07:07:52;2.90;;;0.70;;
20935;SDS011;10627;54.514;18.532;2022-07-29T07:12:53;3.15;;;0.30;;
20935;SDS011;10627;54.514;18.532;2022-07-29T07:17:53;1.05;;;0.50;;
20935;SDS011;10627;54.514;18.532;2022-07-29T07:22:54;4.38;;;0.50;;
20935;SDS011;10627;54.514;18.532;2022-07-29T07:27:54;2.47;;;0.50;;
20935;SDS011;10627;54.514;18.532;2022-07-29T07:32:55;1.35;;;0.60;;
20935;SDS011;10627;54.514;18.532;2022-07-29T07:37:56;2.65;;;0.70;;
20935;SDS011;10627;54.514;18.532;2022-07-29T07:42:57;1.83;;;0.57;;
20935;SDS011;10627;54.514;18.532;2022-07-29T07:47:58;2.50;;;0.40;;
20935;SDS011;10627;54.514;18.532;2022-07-29T07:52:59;4.72;;;0.55;;
20935;SDS011;10627;54.514;18.532;2022-07-29T07:58:02;0.55;;;0.40;;
20935;SDS011;10627;54.514;18.532;2022-07-29T08:03:03;0.80;;;0.50;;
20935;SDS011;10627;54.514;18.532;2022-07-29T08:08:04;2.42;;;0.40;;
20935;SDS011;10627;54.514;18.532;2022-07-29T08:13:05;2.83;;;0.30;;
20935;SDS011;10627;54.514;18.532;2022-07-29T08:18:07;1.02;;;0.30;;
20935;SDS011;10627;54.514;18.532;2022-07-29T08:23:07;0.52;;;0.40;;
20935;SDS011;10627;54.514;18.532;2022-07-29T08:28:11;3.20;;;0.35;;
20935;SDS011;10627;54.514;18.532;2022-07-29T08:33:12;0.60;;;0.40;;
20935;SDS011;10627;54.514;18.532;2022-07-29T08:38:13;1.02;;;0.40;;
20935;SDS011;10627;54.514;18.532;2022-07-29T08:43:13;2.17;;;0.45;;
20935;SDS011;10627;54.514;18.532;2022-07-29T08:48:15;1.92;;;0.90;;
20935;SDS011;10627;54.514;18.532;2022-07-29T08:53:17;1.55;;;0.52;;
20935;SDS011;10627;54.514;18.532;2022-07-29T08:58:18;0.63;;;0.47;;
20935;SDS011;10627;54.514;18.532;2022-07-29T09:03:20;0.55;;;0.55;;
20935;SDS011;10627;54.514;18.532;2022-07-29T09:08:22;3.13;;;0.30;;
20935;SDS011;10627;54.514;18.532;2022-07-29T09:13:23;0.50;;;0.40;;
20935;SDS011;10627;54.514;18.532;2022-07-29T09:18:38;0.75;;;0.40;;
20935;SDS011;10627;54.514;18.532;2022-07-29T09:23:40;0.90;;;0.32;;
20935;SDS011;10627;54.514;18.532;2022-07-29T09:28:43;2.40;;;0.47;;
20935;SDS011;10627;54.514;18.532;2022-07-29T09:33:43;3.50;;;0.40;;
20935;SDS011;10627;54.514;18.532;2022-07-29T09:38:44;1.85;;;0.60;;
20935;SDS011;10627;54.514;18.532;2022-07-29T09:43:58;9.23;;;1.23;;
20935;SDS011;10627;54.514;18.532;2022-07-29T09:49:12;0.52;;;0.52;;
20935;SDS011;10627;54.514;18.532;2022-07-29T09:54:26;1.63;;;0.60;;
20935;SDS011;10627;54.514;18.532;2022-07-29T09:59:28;6.07;;;1.65;;
20935;SDS011;10627;54.514;18.532;2022-07-29T10:04:42;1.05;;;0.70;;
20935;SDS011;10627;54.514;18.532;2022-07-29T10:09:52;5.07;;;0.60;;
20935;SDS011;10627;54.514;18.532;2022-07-29T10:14:57;0.40;;;0.40;;
20935;SDS011;10627;54.514;18.532;2022-07-29T10:19:58;0.50;;;0.50;;
20935;SDS011;10627;54.514;18.532;2022-07-29T10:24:59;3.60;;;0.47;;
20935;SDS011;10627;54.514;18.532;2022-07-29T10:30:00;0.50;;;0.38;;
20935;SDS011;10627;54.514;18.532;2022-07-29T10:40:19;0.30;;;0.30;;
20935;SDS011;10627;54.514;18.532;2022-07-29T10:45:46;0.40;;;0.40;;
20935;SDS011;10627;54.514;18.532;2022-07-29T10:50:57;0.30;;;0.30;;
20935;SDS011;10627;54.514;18.532;2022-07-29T10:56:00;0.30;;;0.30;;
20935;SDS011;10627;54.514;18.532;2022-07-29T11:01:02;0.68;;;0.57;;
20935;SDS011;10627;54.514;18.532;2022-07-29T11:07:06;0.63;;;0.30;;
20935;SDS011;10627;54.514;18.532;2022-07-29T11:11:50;0.43;;;0.43;;
20935;SDS011;10627;54.514;18.532;2022-07-29T11:16:57;0.98;;;0.40;;
20935;SDS011;10627;54.514;18.532;2022-07-29T11:22:08;1.92;;;0.30;;
20935;SDS011;10627;54.514;18.532;2022-07-29T11:27:11;1.08;;;0.40;;
20935;SDS011;10627;54.514;18.532;2022-07-29T11:32:15;0.50;;;0.50;;
20935;SDS011;10627;54.514;18.532;2022-07-29T11:37:19;4.78;;;0.40;;
20935;SDS011;10627;54.514;18.532;2022-07-29T11:47:21;0.68;;;0.20;;
20935;SDS011;10627;54.514;18.532;2022-07-29T11:52:22;7.22;;;0.60;;
20935;SDS011;10627;54.514;18.532;2022-07-29T11:57:23;2.58;;;0.20;;
20935;SDS011;10627;54.514;18.532;2022-07-29T12:02:25;5.38;;;0.30;;
20935;SDS011;10627;54.514;18.532;2022-07-29T12:08:29;1.35;;;0.45;;
20935;SDS011;10627;54.514;18.532;2022-07-29T12:13:43;2.40;;;0.38;;
20935;SDS011;10627;54.514;18.532;2022-07-29T12:19:11;1.75;;;0.38;;
20935;SDS011;10627;54.514;18.532;2022-07-29T12:24:20;1.20;;;0.60;;
20935;SDS011;10627;54.514;18.532;2022-07-29T12:29:29;0.75;;;0.40;;
20935;SDS011;10627;54.514;18.532;2022-07-29T12:34:41;2.88;;;0.45;;
20935;SDS011;10627;54.514;18.532;2022-07-29T12:39:43;0.50;;;0.40;;
20935;SDS011;10627;54.514;18.532;2022-07-29T12:44:46;0.88;;;0.40;;
20935;SDS011;10627;54.514;18.532;2022-07-29T12:49:50;3.70;;;0.40;;
20935;SDS011;10627;54.514;18.532;2022-07-29T12:54:52;1.13;;;0.35;;
20935;SDS011;10627;54.514;18.532;2022-07-29T13:10:50;0.75;;;0.50;;
20935;SDS011;10627;54.514;18.532;2022-07-29T13:21:36;2.95;;;1.00;;
20935;SDS011;10627;54.514;18.532;2022-07-29T13:26:53;1.10;;;0.47;;
20935;SDS011;10627;54.514;18.532;2022-07-29T13:31:56;0.57;;;0.55;;
20935;SDS011;10627;54.514;18.532;2022-07-29T13:37:01;6.43;;;0.73;;
20935;SDS011;10627;54.514;18.532;2022-07-29T13:42:07;0.40;;;0.40;;
20935;SDS011;10627;54.514;18.532;2022-07-29T13:47:15;3.28;;;0.95;;
20935;SDS011;10627;54.514;18.532;2022-07-29T13:52:21;0.65;;;0.50;;
20935;SDS011;10627;54.514;18.532;2022-07-29T13:57:40;1.38;;;0.50;;
20935;SDS011;10627;54.514;18.532;2022-07-29T14:03:04;2.30;;;0.60;;
20935;SDS011;10627;54.514;18.532;2022-07-29T14:08:07;1.35;;;0.50;;
20935;SDS011;10627;54.514;18.532;2022-07-29T14:13:18;0.65;;;0.50;;
20935;SDS011;10627;54.514;18.532;2022-07-29T14:18:29;4.03;;;1.15;;
20935;SDS011;10627;54.514;18.532;2022-07-29T14:47:08;2.20;;;0.60;;
20935;SDS011;10627;54.514;18.532;2022-07-29T14:52:11;1.20;;;0.60;;
20935;SDS011;10627;54.514;18.532;2022-07-29T15:04:29;0.68;;;0.68;;
20935;SDS011;10627;54.514;18.532;2022-07-29T15:16:20;0.88;;;0.50;;
20935;SDS011;10627;54.514;18.532;2022-07-29T15:21:43;1.52;;;1.25;;
20935;SDS011;10627;54.514;18.532;2022-07-29T15:27:00;1.35;;;1.25;;
20935;SDS011;10627;54.514;18.532;2022-07-29T15:32:21;1.08;;;0.90;;
20935;SDS011;10627;54.514;18.532;2022-07-29T15:37:22;1.50;;;0.82;;
20935;SDS011;10627;54.514;18.532;2022-07-29T15:42:37;6.45;;;0.80;;
20935;SDS011;10627;54.514;18.532;2022-07-29T15:48:13;2.50;;;0.70;;
20935;SDS011;10627;54.514;18.532;2022-07-29T15:53:51;1.05;;;0.75;;
20935;SDS011;10627;54.514;18.532;2022-07-29T15:58:59;0.52;;;0.52;;
20935;SDS011;10627;54.514;18.532;2022-07-29T16:09:27;10.10;;;0.70;;
20935;SDS011;10627;54.514;18.532;2022-07-29T16:26:36;1.27;;;0.70;;
20935;SDS011;10627;54.514;18.532;2022-07-29T16:31:58;3.83;;;2.22;;
20935;SDS011;10627;54.514;18.532;2022-07-29T16:37:19;2.40;;;1.67;;
20935;SDS011;10627;54.514;18.532;2022-07-29T16:48:19;1.25;;;1.00;;
20935;SDS011;10627;54.514;18.532;2022-07-29T17:05:17;1.17;;;0.88;;
20935;SDS011;10627;54.514;18.532;2022-07-29T17:10:27;1.02;;;0.90;;
20935;SDS011;10627;54.514;18.532;2022-07-29T17:15:48;0.47;;;0.47;;
20935;SDS011;10627;54.514;18.532;2022-07-29T17:21:05;0.80;;;0.73;;
20935;SDS011;10627;54.514;18.532;2022-07-29T17:26:16;1.45;;;0.55;;
20935;SDS011;10627;54.514;18.532;2022-07-29T17:31:26;1.55;;;0.70;;
20935;SDS011;10627;54.514;18.532;2022-07-29T17:36:49;1.02;;;0.55;;
20935;SDS011;10627;54.514;18.532;2022-07-29T17:42:11;0.98;;;0.80;;
20935;SDS011;10627;54.514;18.532;2022-07-29T17:53:00;2.72;;;0.90;;
20935;SDS011;10627;54.514;18.532;2022-07-29T18:04:01;2.00;;;0.50;;
20935;SDS011;10627;54.514;18.532;2022-07-29T18:09:23;1.25;;;0.63;;
20935;SDS011;10627;54.514;18.532;2022-07-29T18:20:33;1.27;;;0.95;;
20935;SDS011;10627;54.514;18.532;2022-07-29T18:25:46;0.95;;;0.52;;
20935;SDS011;10627;54.514;18.532;2022-07-29T18:31:05;0.70;;;0.57;;
20935;SDS011;10627;54.514;18.532;2022-07-29T18:36:44;1.52;;;0.75;;
20935;SDS011;10627;54.514;18.532;2022-07-29T18:42:17;3.20;;;0.63;;
20935;SDS011;10627;54.514;18.532;2022-07-29T18:47:38;0.90;;;0.90;;
20935;SDS011;10627;54.514;18.532;2022-07-29T18:52:47;2.15;;;1.25;;
20935;SDS011;10627;54.514;18.532;2022-07-29T18:57:59;0.80;;;0.50;;
20935;SDS011;10627;54.514;18.532;2022-07-29T19:03:02;0.80;;;0.70;;
20935;SDS011;10627;54.514;18.532;2022-07-29T19:08:22;3.05;;;0.60;;
20935;SDS011;10627;54.514;18.532;2022-07-29T19:13:33;6.53;;;0.80;;
20935;SDS011;10627;54.514;18.532;2022-07-29T19:18:53;1.20;;;1.00;;
20935;SDS011;10627;54.514;18.532;2022-07-29T19:24:03;0.93;;;0.80;;
20935;SDS011;10627;54.514;18.532;2022-07-29T19:35:04;0.50;;;0.50;;
20935;SDS011;10627;54.514;18.532;2022-07-29T21:46:02;1.55;;;0.70;;
20935;SDS011;10627;54.514;18.532;2022-07-29T21:51:08;1.35;;;0.77;;
20935;SDS011;10627;54.514;18.532;2022-07-29T21:56:10;2.03;;;0.90;;
20935;SDS011;10627;54.514;18.532;2022-07-29T22:01:17;1.35;;;0.88;;
20935;SDS011;10627;54.514;18.532;2022-07-29T22:06:21;2.13;;;1.08;;
20935;SDS011;10627;54.514;18.532;2022-07-29T22:11:27;1.13;;;0.90;;
20935;SDS011;10627;54.514;18.532;2022-07-29T22:16:27;1.25;;;0.90;;
20935;SDS011;10627;54.514;18.532;2022-07-29T22:21:45;0.88;;;0.60;;
20935;SDS011;10627;54.514;18.532;2022-07-29T22:27:19;5.90;;;1.05;;
20935;SDS011;10627;54.514;18.532;2022-07-29T22:45:20;1.30;;;0.77;;
20935;SDS011;10627;54.514;18.532;2022-07-29T22:50:42;1.75;;;0.98;;
20935;SDS011;10627;54.514;18.532;2022-07-29T22:55:57;0.98;;;0.80;;
